Time;durP1;ratioP1;P1;durP2;ratioP2;P2;SDS_P1;SDS_P2;PMS_P1;PMS_P2;Temp;Humidity;BMP_temperature;BMP_pressure;BME280_temperature;BME280_humidity;BME280_pressure;Samples;Min_cycle;Max_cycle;Signal;HPM_P1;HPM_P2
2022/07/24 00:01:53;;;;;;;;;;;20.80;90.60;;;;;;5136984;27;19946;-52
2022/07/24 00:04:24;;;;;;;;;;;20.80;90.90;;;;;;5137876;27;19915;-50
2022/07/24 00:06:50;;;;;;;;;;;20.70;91.10;;;;;;5137066;27;19907;-50
2022/07/24 00:09:18;;;;;;;;;;;20.80;91.50;;;;;;5136896;27;19915;-51
2022/07/24 00:11:44;;;;;;;;;;;20.70;91.70;;;;;;5123362;27;19922;-47
2022/07/24 00:14:09;;;;;;;;;;;20.70;91.90;;;;;;5116537;28;20282;-50
2022/07/24 00:16:35;;;;;;;;;;;20.70;92.10;;;;;;5118201;28;19907;-50
2022/07/24 00:19:01;;;;;;;;;;;20.70;92.10;;;;;;5116943;28;19919;-53
2022/07/24 00:21:26;;;;;;;;;;;20.60;92.50;;;;;;5116862;28;19963;-50
2022/07/24 00:23:52;;;;;;;;;;;20.70;92.60;;;;;;5116473;28;19959;-50
2022/07/24 00:26:18;;;;;;;;;;;20.60;92.60;;;;;;5116182;28;19924;-49
2022/07/24 00:28:44;;;;;;;;;;;20.50;92.90;;;;;;5115914;28;19908;-49
2022/07/24 00:31:09;;;;;;;;;;;20.40;93.10;;;;;;5116303;28;19912;-52
2022/07/24 00:33:35;;;;;;;;;;;20.40;93.40;;;;;;5115986;28;19923;-50
2022/07/24 00:36:03;;;;;;;;;;;20.40;93.30;;;;;;5115124;28;19935;-48
2022/07/24 00:38:29;;;;;;;;;;;20.40;93.40;;;;;;5116044;28;19908;-51
2022/07/24 00:40:54;;;;;;;;;;;20.30;93.50;;;;;;5115311;28;19926;-51
2022/07/24 00:43:21;;;;;;;;;;;20.20;93.70;;;;;;5118455;27;19915;-52
2022/07/24 00:45:46;;;;;;;;;;;20.20;94.10;;;;;;5136643;27;19951;-53
2022/07/24 00:48:12;;;;;;;;;;;20.20;94.10;;;;;;5136637;27;20327;-51
2022/07/24 00:50:38;;;;;;;;;;;20.20;94.00;;;;;;5135984;27;20007;-47
2022/07/24 00:53:03;;;;;;;;;;;20.20;94.00;;;;;;5136932;27;20006;-50
2022/07/24 00:55:29;;;;;;;;;;;20.20;94.00;;;;;;5118681;27;20374;-47
2022/07/24 00:57:55;;;;;;;;;;;20.10;94.00;;;;;;5136657;27;19964;-49
2022/07/24 01:00:23;;;;;;;;;;;20.10;94.30;;;;;;5136363;27;19907;-53
2022/07/24 01:02:50;;;;;;;;;;;20.00;94.50;;;;;;5136429;27;19915;-48
2022/07/24 01:05:16;;;;;;;;;;;20.10;94.60;;;;;;5135650;27;19907;-49
2022/07/24 01:07:41;;;;;;;;;;;20.10;94.30;;;;;;5135592;27;20018;-51
2022/07/24 01:10:10;;;;;;;;;;;19.80;94.60;;;;;;5135863;27;19950;-53
2022/07/24 01:12:36;;;;;;;;;;;19.70;94.90;;;;;;5095530;28;19908;-47
2022/07/24 01:15:03;;;;;;;;;;;19.70;95.30;;;;;;5095493;28;19908;-49
2022/07/24 01:17:29;;;;;;;;;;;19.70;95.80;;;;;;5094324;28;19919;-47
2022/07/24 01:19:55;;;;;;;;;;;19.80;96.10;;;;;;5094494;28;20372;-48
2022/07/24 01:22:20;;;;;;;;;;;19.80;96.20;;;;;;5094929;28;19913;-46
2022/07/24 01:24:46;;;;;;;;;;;19.90;96.40;;;;;;5075882;28;19943;-47
2022/07/24 01:27:11;;;;;;;;;;;19.90;96.50;;;;;;5095597;28;19958;-50
2022/07/24 01:29:37;;;;;;;;;;;19.90;96.50;;;;;;5094320;28;19916;-48
2022/07/24 01:32:02;;;;;;;;;;;19.90;96.70;;;;;;5094334;28;19916;-47
2022/07/24 01:34:28;;;;;;;;;;;19.80;96.90;;;;;;5094834;28;19969;-52
2022/07/24 01:36:53;;;;;;;;;;;19.80;97.00;;;;;;5093891;28;19916;-46
2022/07/24 01:39:19;;;;;;;;;;;19.70;97.10;;;;;;5094351;28;20217;-48
2022/07/24 01:41:45;;;;;;;;;;;19.70;97.00;;;;;;5106232;28;19919;-48
2022/07/24 01:44:10;;;;;;;;;;;19.70;97.20;;;;;;5124213;27;19912;-49
2022/07/24 01:46:36;;;;;;;;;;;19.70;97.30;;;;;;5134960;27;20010;-51
2022/07/24 01:49:02;;;;;;;;;;;19.80;97.30;;;;;;5134943;27;20002;-47
2022/07/24 01:51:28;;;;;;;;;;;19.70;97.20;;;;;;5134346;27;20002;-51
2022/07/24 01:53:54;;;;;;;;;;;19.70;97.00;;;;;;5134779;27;19969;-47
2022/07/24 01:56:19;;;;;;;;;;;19.60;97.30;;;;;;5135032;27;19933;-46
2022/07/24 01:58:45;;;;;;;;;;;19.60;97.50;;;;;;5135626;27;19916;-50
2022/07/24 02:01:10;;;;;;;;;;;19.60;97.70;;;;;;5136179;27;20013;-49
2022/07/24 02:03:36;;;;;;;;;;;19.60;97.80;;;;;;5117860;28;19919;-49
2022/07/24 02:06:01;;;;;;;;;;;19.50;98.00;;;;;;5136887;27;19918;-47
2022/07/24 02:08:27;;;;;;;;;;;19.40;97.80;;;;;;5135672;27;19912;-53
2022/07/24 02:10:53;;;;;;;;;;;19.20;96.70;;;;;;5111759;28;20007;-52
2022/07/24 02:13:18;;;;;;;;;;;19.10;96.60;;;;;;5115466;28;20271;-48
2022/07/24 02:15:44;;;;;;;;;;;19.00;97.20;;;;;;5114621;28;19912;-51
2022/07/24 02:18:10;;;;;;;;;;;19.00;97.70;;;;;;5094919;28;19964;-52
2022/07/24 02:20:35;;;;;;;;;;;19.00;97.80;;;;;;5114715;28;19912;-51
2022/07/24 02:23:01;;;;;;;;;;;19.00;97.90;;;;;;5114280;28;19907;-46
2022/07/24 02:25:27;;;;;;;;;;;19.00;98.10;;;;;;5114864;28;20390;-49
2022/07/24 02:27:52;;;;;;;;;;;19.00;98.30;;;;;;5096916;28;19912;-51
2022/07/24 02:30:19;;;;;;;;;;;19.10;98.30;;;;;;5114228;28;19955;-54
2022/07/24 02:32:44;;;;;;;;;;;19.10;98.20;;;;;;5115047;28;19912;-47
2022/07/24 02:35:10;;;;;;;;;;;19.10;98.10;;;;;;5113606;28;19907;-53
2022/07/24 02:37:41;;;;;;;;;;;19.10;98.20;;;;;;5114180;28;19908;-49
2022/07/24 02:40:07;;;;;;;;;;;19.10;98.10;;;;;;5114026;28;19981;-49
2022/07/24 02:42:33;;;;;;;;;;;19.00;98.30;;;;;;5114573;28;19919;-48
2022/07/24 02:44:59;;;;;;;;;;;19.00;98.60;;;;;;5130778;28;19915;-51
2022/07/24 02:47:24;;;;;;;;;;;19.00;98.60;;;;;;5134062;28;19911;-50
2022/07/24 02:49:50;;;;;;;;;;;19.00;98.50;;;;;;5116351;28;19916;-47
2022/07/24 02:52:15;;;;;;;;;;;18.90;98.30;;;;;;5135187;28;19907;-48
2022/07/24 02:54:41;;;;;;;;;;;18.80;98.70;;;;;;5134732;28;20365;-51
2022/07/24 02:57:06;;;;;;;;;;;18.80;98.80;;;;;;5134078;28;19933;-46
2022/07/24 02:59:32;;;;;;;;;;;18.90;98.70;;;;;;5132969;27;19911;-46
2022/07/24 03:01:57;;;;;;;;;;;18.80;98.50;;;;;;5132730;28;20004;-49
2022/07/24 03:04:23;;;;;;;;;;;18.80;98.40;;;;;;5134395;28;20059;-53
2022/07/24 03:06:48;;;;;;;;;;;18.80;98.40;;;;;;5133471;28;19915;-47
2022/07/24 03:09:14;;;;;;;;;;;18.80;98.80;;;;;;5133676;27;19943;-49
2022/07/24 03:11:39;;;;;;;;;;;18.80;98.60;;;;;;5120693;28;19911;-48
2022/07/24 03:14:05;;;;;;;;;;;18.70;98.40;;;;;;5112598;28;20328;-51
2022/07/24 03:16:30;;;;;;;;;;;18.60;98.60;;;;;;5112342;28;20355;-47
2022/07/24 03:18:56;;;;;;;;;;;18.50;99.70;;;;;;5113136;28;20305;-46
2022/07/24 03:21:22;;;;;;;;;;;18.40;99.90;;;;;;5113529;28;19908;-51
2022/07/24 03:23:47;;;;;;;;;;;18.40;99.90;;;;;;5112984;28;20010;-53
2022/07/24 03:26:13;;;;;;;;;;;18.40;99.90;;;;;;5112577;28;19912;-50
2022/07/24 03:28:38;;;;;;;;;;;18.40;99.90;;;;;;5111723;28;20383;-48
2022/07/24 03:31:04;;;;;;;;;;;18.50;99.90;;;;;;5115803;28;19923;-51
2022/07/24 03:33:29;;;;;;;;;;;18.40;99.80;;;;;;5116476;28;19915;-53
2022/07/24 03:35:55;;;;;;;;;;;18.40;99.90;;;;;;5116249;28;19919;-47
2022/07/24 03:38:21;;;;;;;;;;;18.40;99.90;;;;;;5116712;28;20385;-50
2022/07/24 03:40:46;;;;;;;;;;;18.30;99.70;;;;;;5116993;28;19908;-50
2022/07/24 03:43:12;;;;;;;;;;;18.20;99.90;;;;;;5118649;27;19915;-53
2022/07/24 03:45:37;;;;;;;;;;;18.00;99.90;;;;;;5136561;27;20006;-47
2022/07/24 03:48:03;;;;;;;;;;;18.00;99.90;;;;;;5136617;27;20064;-48
2022/07/24 03:50:29;;;;;;;;;;;18.10;99.90;;;;;;5137291;27;19919;-50
2022/07/24 03:52:54;;;;;;;;;;;18.20;99.90;;;;;;5137323;27;20088;-52
2022/07/24 03:55:20;;;;;;;;;;;18.40;99.90;;;;;;5137477;27;19912;-47
2022/07/24 03:57:45;;;;;;;;;;;18.40;99.90;;;;;;5137444;27;20267;-50
2022/07/24 04:00:11;;;;;;;;;;;18.50;99.90;;;;;;5137302;27;19998;-47
2022/07/24 04:02:37;;;;;;;;;;;18.60;99.90;;;;;;5137273;27;20006;-48
2022/07/24 04:05:03;;;;;;;;;;;18.60;99.90;;;;;;5137069;27;19923;-52
2022/07/24 04:07:28;;;;;;;;;;;18.50;99.90;;;;;;5136491;27;20029;-51
2022/07/24 04:09:54;;;;;;;;;;;18.40;99.90;;;;;;5136987;27;20013;-48
2022/07/24 04:12:20;;;;;;;;;;;18.50;99.90;;;;;;5118875;27;19912;-52
2022/07/24 04:14:45;;;;;;;;;;;18.50;99.90;;;;;;5115780;28;20490;-52
2022/07/24 04:17:11;;;;;;;;;;;18.60;99.90;;;;;;5114412;28;19914;-50
2022/07/24 04:19:36;;;;;;;;;;;18.70;99.80;;;;;;5115504;28;19918;-48
2022/07/24 04:22:02;;;;;;;;;;;18.70;99.90;;;;;;5116365;28;20549;-52
2022/07/24 04:24:27;;;;;;;;;;;18.80;99.60;;;;;;5116187;28;20390;-50
2022/07/24 04:26:53;;;;;;;;;;;18.90;99.40;;;;;;5114711;28;19918;-55
2022/07/24 04:29:18;;;;;;;;;;;18.90;99.20;;;;;;5114689;28;19916;-51
2022/07/24 04:31:45;;;;;;;;;;;18.90;99.10;;;;;;5115778;28;20335;-48
2022/07/24 04:34:10;;;;;;;;;;;18.90;98.60;;;;;;5116048;28;19941;-50
2022/07/24 04:36:36;;;;;;;;;;;18.90;98.30;;;;;;5115435;28;19912;-47
2022/07/24 04:39:02;;;;;;;;;;;18.90;98.20;;;;;;5114958;28;19912;-52
2022/07/24 04:41:28;;;;;;;;;;;18.90;98.00;;;;;;5114265;28;19964;-48
2022/07/24 04:43:53;;;;;;;;;;;18.80;97.80;;;;;;5104068;27;19912;-53
2022/07/24 04:46:19;;;;;;;;;;;18.80;98.00;;;;;;5135290;27;20552;-49
2022/07/24 04:48:44;;;;;;;;;;;18.80;97.80;;;;;;5136482;27;20085;-47
2022/07/24 04:51:10;;;;;;;;;;;18.80;97.70;;;;;;5136275;27;19970;-51
2022/07/24 04:53:35;;;;;;;;;;;18.80;97.30;;;;;;5136123;27;19911;-55
2022/07/24 04:56:01;;;;;;;;;;;18.80;97.20;;;;;;5135341;27;19919;-50
2022/07/24 04:58:27;;;;;;;;;;;18.80;97.10;;;;;;5116219;27;19912;-48
2022/07/24 05:00:52;;;;;;;;;;;18.90;96.90;;;;;;5135200;27;19918;-47
2022/07/24 05:03:18;;;;;;;;;;;18.90;96.50;;;;;;5116502;27;19933;-49
2022/07/24 05:05:44;;;;;;;;;;;18.90;96.20;;;;;;5134521;27;19907;-52
2022/07/24 05:08:10;;;;;;;;;;;18.90;96.30;;;;;;5134623;27;20409;-47
2022/07/24 05:10:35;;;;;;;;;;;18.90;96.30;;;;;;5131125;27;20004;-51
2022/07/24 05:13:01;;;;;;;;;;;19.00;96.50;;;;;;5114343;28;20329;-50
2022/07/24 05:15:26;;;;;;;;;;;19.10;96.50;;;;;;5114389;28;19916;-51
2022/07/24 05:17:52;;;;;;;;;;;19.10;96.70;;;;;;5114179;28;19975;-50
2022/07/24 05:20:17;;;;;;;;;;;19.10;96.70;;;;;;5115339;28;19911;-47
2022/07/24 05:22:43;;;;;;;;;;;19.30;96.60;;;;;;5116034;28;19950;-48
2022/07/24 05:25:09;;;;;;;;;;;19.30;96.40;;;;;;5114146;28;20302;-53
2022/07/24 05:27:34;;;;;;;;;;;19.40;96.10;;;;;;5114344;28;19994;-50
2022/07/24 05:30:00;;;;;;;;;;;19.40;95.90;;;;;;5115410;28;20362;-49
2022/07/24 05:32:25;;;;;;;;;;;19.40;95.60;;;;;;5097460;28;19912;-48
2022/07/24 05:34:51;;;;;;;;;;;19.40;95.60;;;;;;5115039;28;19911;-55
2022/07/24 05:37:16;;;;;;;;;;;19.30;95.60;;;;;;5114583;28;19944;-49
2022/07/24 05:39:42;;;;;;;;;;;19.30;95.70;;;;;;5114563;28;19969;-45
2022/07/24 05:42:07;;;;;;;;;;;19.40;95.70;;;;;;5114522;28;19912;-51
2022/07/24 05:44:33;;;;;;;;;;;19.50;95.40;;;;;;5128324;27;19915;-48
2022/07/24 05:46:58;;;;;;;;;;;19.60;95.30;;;;;;5134724;27;19968;-47
2022/07/24 05:49:24;;;;;;;;;;;19.60;95.10;;;;;;5117592;27;19968;-47
2022/07/24 05:51:50;;;;;;;;;;;19.70;94.90;;;;;;5136353;27;19907;-53
2022/07/24 05:54:15;;;;;;;;;;;19.60;95.30;;;;;;5135082;27;20386;-47
2022/07/24 05:56:41;;;;;;;;;;;19.60;94.90;;;;;;5135177;27;19914;-51
2022/07/24 05:59:06;;;;;;;;;;;19.50;95.20;;;;;;5135178;27;19915;-48
2022/07/24 06:01:32;;;;;;;;;;;19.60;95.30;;;;;;5134871;27;20327;-52
2022/07/24 06:03:58;;;;;;;;;;;19.60;95.50;;;;;;5134649;27;19908;-46
2022/07/24 06:06:23;;;;;;;;;;;19.60;95.60;;;;;;5134594;27;19911;-46
2022/07/24 06:08:49;;;;;;;;;;;19.70;95.50;;;;;;5134550;27;19943;-46
2022/07/24 06:11:14;;;;;;;;;;;19.80;95.50;;;;;;5126144;27;19912;-49
2022/07/24 06:13:40;;;;;;;;;;;19.80;95.30;;;;;;5114825;28;20019;-48
2022/07/24 06:16:06;;;;;;;;;;;20.00;95.40;;;;;;5113831;28;20002;-50
2022/07/24 06:18:31;;;;;;;;;;;19.90;94.80;;;;;;5113498;28;19943;-48
2022/07/24 06:21:00;;;;;;;;;;;19.90;95.10;;;;;;5114279;28;19908;-52
2022/07/24 06:23:28;;;;;;;;;;;19.80;95.20;;;;;;5113760;28;19916;-48
2022/07/24 06:25:56;;;;;;;;;;;19.90;95.10;;;;;;5114247;28;19908;-50
2022/07/24 06:28:22;;;;;;;;;;;19.80;95.20;;;;;;5113436;28;19938;-48
2022/07/24 06:30:47;;;;;;;;;;;19.90;95.20;;;;;;5113878;28;20343;-48
2022/07/24 06:33:13;;;;;;;;;;;20.10;95.20;;;;;;5113900;28;19912;-51
2022/07/24 06:35:38;;;;;;;;;;;20.10;95.20;;;;;;5112559;28;20339;-51
2022/07/24 06:38:07;;;;;;;;;;;20.30;95.10;;;;;;5113316;28;20519;-52
2022/07/24 06:40:34;;;;;;;;;;;20.20;94.70;;;;;;5113669;28;20396;-51
2022/07/24 06:42:59;;;;;;;;;;;20.30;94.60;;;;;;5094958;28;19918;-50
2022/07/24 06:45:25;;;;;;;;;;;20.40;94.40;;;;;;5133468;28;20014;-53
2022/07/24 06:47:51;;;;;;;;;;;20.50;94.20;;;;;;5133352;28;19912;-53
2022/07/24 06:50:16;;;;;;;;;;;20.40;94.30;;;;;;5133014;27;19923;-49
2022/07/24 06:52:42;;;;;;;;;;;20.40;94.10;;;;;;5133006;28;19911;-49
2022/07/24 06:55:08;;;;;;;;;;;20.50;93.80;;;;;;5132288;28;20055;-51
2022/07/24 06:57:33;;;;;;;;;;;20.60;93.50;;;;;;5133318;28;19936;-46
2022/07/24 07:00:07;;;;;;;;;;;20.80;93.00;;;;;;5133245;27;19911;-52
2022/07/24 07:02:33;;;;;;;;;;;20.90;92.60;;;;;;5134011;28;19991;-48
2022/07/24 07:04:59;;;;;;;;;;;20.80;92.60;;;;;;5137555;27;19915;-46
2022/07/24 07:07:25;;;;;;;;;;;20.60;93.10;;;;;;5137229;27;19907;-50
2022/07/24 07:09:50;;;;;;;;;;;20.70;92.40;;;;;;5137654;27;20108;-53
2022/07/24 07:12:16;;;;;;;;;;;20.70;92.10;;;;;;5119689;27;19966;-48
2022/07/24 07:14:41;;;;;;;;;;;20.80;92.30;;;;;;5116462;28;19908;-46
2022/07/24 07:17:07;;;;;;;;;;;20.90;91.90;;;;;;5116285;28;20018;-47
2022/07/24 07:19:33;;;;;;;;;;;21.00;91.60;;;;;;5117213;28;20010;-57
2022/07/24 07:21:58;;;;;;;;;;;21.00;91.50;;;;;;5116974;28;19912;-50
2022/07/24 07:24:24;;;;;;;;;;;21.00;92.00;;;;;;5116534;28;19942;-49
2022/07/24 07:26:52;;;;;;;;;;;21.20;91.70;;;;;;5115814;28;19908;-50
2022/07/24 07:29:17;;;;;;;;;;;21.30;91.90;;;;;;5116668;28;19912;-52
2022/07/24 07:31:43;;;;;;;;;;;21.40;91.60;;;;;;5116809;28;20393;-48
2022/07/24 07:34:08;;;;;;;;;;;21.40;90.80;;;;;;5116543;28;19920;-49
2022/07/24 07:36:34;;;;;;;;;;;21.40;91.10;;;;;;5115832;28;20010;-49
2022/07/24 07:39:00;;;;;;;;;;;21.40;91.10;;;;;;5115878;28;20010;-48
2022/07/24 07:41:25;;;;;;;;;;;21.40;91.20;;;;;;5116273;28;20246;-54
2022/07/24 07:43:51;;;;;;;;;;;21.50;91.10;;;;;;5123644;27;19972;-50
2022/07/24 07:46:17;;;;;;;;;;;21.50;90.50;;;;;;5136520;27;19960;-50
2022/07/24 07:48:43;;;;;;;;;;;21.40;90.50;;;;;;5136833;27;19908;-47
2022/07/24 07:51:08;;;;;;;;;;;21.50;90.60;;;;;;5135889;27;19935;-47
2022/07/24 07:54:16;;;;;;;;;;;21.60;90.40;;;;;;5138274;27;19919;-55
2022/07/24 07:56:41;;;;;;;;;;;21.70;89.30;;;;;;5115942;27;20428;-51
2022/07/24 07:59:07;;;;;;;;;;;21.80;90.10;;;;;;5116156;28;19911;-55
2022/07/24 08:01:39;;;;;;;;;;;21.80;90.30;;;;;;5080667;28;20534;-53
2022/07/24 08:04:10;;;;;;;;;;;22.00;89.80;;;;;;5097636;28;19915;-56
2022/07/24 08:06:36;;;;;;;;;;;22.00;90.10;;;;;;5115598;28;19912;-52
2022/07/24 08:09:28;;;;;;;;;;;22.10;90.00;;;;;;5097394;28;19912;-54
2022/07/24 08:11:57;;;;;;;;;;;22.10;87.40;;;;;;5100083;28;19934;-49
2022/07/24 08:14:40;;;;;;;;;;;22.10;86.90;;;;;;5094971;28;20355;-53
2022/07/24 08:17:09;;;;;;;;;;;22.10;88.30;;;;;;5093433;28;19916;-54
2022/07/24 08:19:38;;;;;;;;;;;22.20;87.30;;;;;;5094058;28;19962;-51
2022/07/24 08:22:04;;;;;;;;;;;22.50;86.30;;;;;;5095098;28;19919;-54
2022/07/24 08:24:32;;;;;;;;;;;22.60;86.10;;;;;;5095374;28;19920;-52
2022/07/24 08:26:57;;;;;;;;;;;22.80;85.50;;;;;;5094367;28;19912;-52
2022/07/24 08:29:23;;;;;;;;;;;22.90;85.00;;;;;;5094518;28;19917;-55
2022/07/24 08:31:49;;;;;;;;;;;22.80;85.00;;;;;;5076813;28;19973;-54
2022/07/24 08:34:14;;;;;;;;;;;22.90;84.80;;;;;;5095081;28;19934;-55
2022/07/24 08:36:40;;;;;;;;;;;23.00;84.50;;;;;;5094629;28;19923;-54
2022/07/24 08:39:05;;;;;;;;;;;23.10;84.50;;;;;;5095406;28;19975;-52
2022/07/24 08:41:33;;;;;;;;;;;23.10;83.70;;;;;;5106113;28;20504;-54
2022/07/24 08:43:59;;;;;;;;;;;23.20;83.60;;;;;;5124077;27;19907;-55
2022/07/24 08:46:25;;;;;;;;;;;23.20;83.70;;;;;;5135014;27;19987;-54
2022/07/24 08:48:51;;;;;;;;;;;23.00;84.50;;;;;;5135635;27;19914;-54
2022/07/24 08:51:17;;;;;;;;;;;23.20;83.80;;;;;;5135876;27;20358;-53
2022/07/24 08:53:43;;;;;;;;;;;23.30;83.50;;;;;;5117552;27;19918;-53
2022/07/24 08:56:09;;;;;;;;;;;23.10;83.40;;;;;;5134840;27;20343;-51
2022/07/24 08:58:38;;;;;;;;;;;23.40;83.10;;;;;;5135139;27;20355;-55
2022/07/24 09:01:04;;;;;;;;;;;23.50;83.00;;;;;;5136290;27;19907;-59
2022/07/24 09:03:37;;;;;;;;;;;23.60;83.10;;;;;;5135965;27;19971;-54
2022/07/24 09:06:06;;;;;;;;;;;23.60;82.30;;;;;;5134746;27;19947;-54
2022/07/24 09:08:32;;;;;;;;;;;23.50;82.10;;;;;;5135176;27;19953;-54
2022/07/24 09:10:59;;;;;;;;;;;23.60;81.50;;;;;;5128650;27;20317;-54
2022/07/24 09:13:26;;;;;;;;;;;23.90;81.60;;;;;;5114083;28;19907;-53
2022/07/24 09:15:51;;;;;;;;;;;23.80;81.30;;;;;;5114613;28;19918;-52
2022/07/24 09:18:33;;;;;;;;;;;23.80;80.90;;;;;;5114118;28;19931;-56
2022/07/24 09:21:11;;;;;;;;;;;23.90;80.50;;;;;;5114649;28;19919;-56
2022/07/24 09:23:37;;;;;;;;;;;24.10;80.00;;;;;;5114233;28;19915;-51
2022/07/24 09:26:02;;;;;;;;;;;24.00;79.70;;;;;;5113541;28;19911;-54
2022/07/24 09:28:28;;;;;;;;;;;23.90;80.00;;;;;;5113671;28;20039;-54
2022/07/24 09:31:00;;;;;;;;;;;24.10;79.70;;;;;;5114371;28;20275;-50
2022/07/24 09:33:25;;;;;;;;;;;24.20;78.70;;;;;;5113765;28;19915;-52
2022/07/24 09:36:12;;;;;;;;;;;24.30;78.40;;;;;;5109666;27;19912;-53
2022/07/24 09:38:37;;;;;;;;;;;24.20;78.00;;;;;;5112948;28;20349;-50
2022/07/24 09:41:03;;;;;;;;;;;24.10;78.20;;;;;;5110519;28;19919;-48
2022/07/24 09:43:32;;;;;;;;;;;24.10;78.50;;;;;;5109050;28;20390;-52
2022/07/24 09:46:04;;;;;;;;;;;24.30;78.10;;;;;;5110015;28;19908;-50
2022/07/24 09:48:33;;;;;;;;;;;24.30;77.30;;;;;;5110175;28;19962;-49
2022/07/24 09:51:03;;;;;;;;;;;24.40;77.40;;;;;;5110412;28;20003;-51
2022/07/24 09:53:30;;;;;;;;;;;24.50;77.30;;;;;;5110069;28;19914;-52
2022/07/24 09:56:02;;;;;;;;;;;24.40;77.00;;;;;;5109616;28;20435;-49
2022/07/24 09:58:28;;;;;;;;;;;24.30;75.80;;;;;;5109403;28;19917;-48
2022/07/24 10:00:55;;;;;;;;;;;24.30;76.80;;;;;;5109770;28;19942;-51
2022/07/24 10:03:24;;;;;;;;;;;24.50;76.50;;;;;;5109858;28;20290;-53
2022/07/24 10:05:53;;;;;;;;;;;24.60;76.00;;;;;;5110009;28;19912;-48
2022/07/24 10:08:19;;;;;;;;;;;24.70;75.70;;;;;;5109054;28;19908;-47
2022/07/24 10:10:44;;;;;;;;;;;25.00;75.90;;;;;;5109629;28;20004;-47
2022/07/24 10:13:10;;;;;;;;;;;25.00;76.10;;;;;;5109823;28;19943;-48
2022/07/24 10:15:49;;;;;;;;;;;25.00;74.90;;;;;;5109517;28;19912;-52
2022/07/24 10:18:16;;;;;;;;;;;24.80;75.20;;;;;;5109604;28;19959;-49
2022/07/24 10:20:45;;;;;;;;;;;24.60;75.80;;;;;;5110024;28;19916;-49
2022/07/24 10:23:16;;;;;;;;;;;24.80;75.60;;;;;;5109895;28;19908;-50
2022/07/24 10:26:11;;;;;;;;;;;24.90;74.50;;;;;;5109576;28;20410;-54
2022/07/24 10:28:38;;;;;;;;;;;25.20;74.10;;;;;;5104469;28;19908;-53
2022/07/24 10:31:04;;;;;;;;;;;25.40;74.00;;;;;;5108094;28;19958;-46
2022/07/24 10:33:30;;;;;;;;;;;25.70;74.60;;;;;;5109984;28;19919;-49
2022/07/24 10:35:58;;;;;;;;;;;25.80;73.00;;;;;;5108964;28;19916;-48
2022/07/24 10:38:29;;;;;;;;;;;25.80;72.80;;;;;;5109137;28;19915;-47
2022/07/24 10:40:55;;;;;;;;;;;25.70;72.40;;;;;;5109544;28;19935;-53
2022/07/24 10:43:21;;;;;;;;;;;25.60;73.20;;;;;;5109767;28;20279;-54
2022/07/24 10:45:55;;;;;;;;;;;25.80;73.00;;;;;;5104629;28;20359;-50
2022/07/24 10:48:21;;;;;;;;;;;26.00;72.40;;;;;;5095134;28;19926;-51
2022/07/24 10:51:00;;;;;;;;;;;25.80;71.50;;;;;;5095207;28;20002;-53
2022/07/24 10:53:27;;;;;;;;;;;25.80;72.40;;;;;;5096465;28;19908;-49
2022/07/24 10:55:54;;;;;;;;;;;25.70;72.40;;;;;;5095373;28;20069;-49
2022/07/24 10:58:21;;;;;;;;;;;25.80;72.30;;;;;;5096389;28;19908;-47
2022/07/24 11:00:48;;;;;;;;;;;25.90;71.30;;;;;;5095355;28;19952;-47
2022/07/24 11:03:24;;;;;;;;;;;25.90;70.90;;;;;;5094515;28;19926;-50
2022/07/24 11:06:02;;;;;;;;;;;26.00;70.30;;;;;;5095463;28;19915;-52
2022/07/24 11:08:30;;;;;;;;;;;26.10;70.80;;;;;;5096066;28;20018;-53
2022/07/24 11:11:05;;;;;;;;;;;26.10;71.30;;;;;;5095732;28;19912;-49
2022/07/24 11:13:33;;;;;;;;;;;26.10;71.50;;;;;;5095017;28;19908;-52
2022/07/24 11:16:11;;;;;;;;;;;26.00;71.40;;;;;;5095051;28;19918;-48
2022/07/24 11:18:41;;;;;;;;;;;26.10;71.30;;;;;;5096204;28;19908;-50
2022/07/24 11:21:07;;;;;;;;;;;26.20;70.50;;;;;;5095971;28;19982;-53
2022/07/24 11:23:32;;;;;;;;;;;26.10;70.30;;;;;;5095510;28;19923;-51
2022/07/24 11:26:20;;;;;;;;;;;26.00;70.00;;;;;;5094945;28;20366;-52
2022/07/24 11:29:05;;;;;;;;;;;26.10;70.00;;;;;;5094520;28;20339;-53
2022/07/24 11:31:31;;;;;;;;;;;26.10;70.90;;;;;;5094503;28;19943;-52
2022/07/24 11:33:59;;;;;;;;;;;26.30;71.00;;;;;;5095045;28;20174;-48
2022/07/24 11:36:25;;;;;;;;;;;26.40;70.60;;;;;;5094587;28;19947;-51
2022/07/24 11:38:51;;;;;;;;;;;26.30;68.90;;;;;;5095040;28;19954;-50
2022/07/24 11:41:17;;;;;;;;;;;26.20;68.20;;;;;;5095176;28;20403;-53
2022/07/24 11:43:52;;;;;;;;;;;26.10;68.90;;;;;;5096046;28;19914;-51
2022/07/24 11:46:36;;;;;;;;;;;26.30;69.10;;;;;;5094519;28;19955;-47
2022/07/24 11:49:03;;;;;;;;;;;26.30;67.50;;;;;;5077110;28;20531;-48
2022/07/24 11:51:29;;;;;;;;;;;26.20;67.40;;;;;;5093722;28;19947;-52
2022/07/24 11:53:56;;;;;;;;;;;26.20;67.50;;;;;;5095458;28;19923;-50
2022/07/24 11:56:21;;;;;;;;;;;26.10;68.10;;;;;;5095362;28;19908;-50
2022/07/24 11:58:47;;;;;;;;;;;26.10;67.50;;;;;;5094469;28;20370;-52
2022/07/24 12:01:19;;;;;;;;;;;26.30;67.50;;;;;;5093591;28;19912;-47
2022/07/24 12:03:56;;;;;;;;;;;26.60;67.20;;;;;;5094783;28;19908;-51
2022/07/24 12:06:22;;;;;;;;;;;26.70;66.80;;;;;;5093818;28;19960;-48
2022/07/24 12:08:47;;;;;;;;;;;26.70;66.70;;;;;;5093373;28;20363;-51
2022/07/24 12:11:23;;;;;;;;;;;26.80;66.70;;;;;;5094532;28;20439;-52
2022/07/24 12:13:48;;;;;;;;;;;26.90;66.70;;;;;;5094187;28;19957;-47
2022/07/24 12:16:22;;;;;;;;;;;27.10;67.00;;;;;;5093834;28;20287;-56
2022/07/24 12:18:48;;;;;;;;;;;27.00;65.80;;;;;;5094456;28;19912;-51
2022/07/24 12:21:14;;;;;;;;;;;27.10;65.90;;;;;;5091667;28;20010;-50
2022/07/24 12:23:42;;;;;;;;;;;27.20;66.30;;;;;;5092427;28;19961;-50
2022/07/24 12:26:10;;;;;;;;;;;27.40;66.30;;;;;;5093049;28;19950;-47
2022/07/24 12:28:36;;;;;;;;;;;27.60;65.80;;;;;;5093502;28;19943;-50
2022/07/24 12:31:06;;;;;;;;;;;27.50;65.70;;;;;;5093795;28;19920;-48
2022/07/24 12:33:33;;;;;;;;;;;27.70;65.50;;;;;;5093666;28;19908;-51
2022/07/24 12:35:59;;;;;;;;;;;27.50;64.80;;;;;;5093211;28;20315;-47
2022/07/24 12:38:29;;;;;;;;;;;27.60;64.30;;;;;;5093277;28;19908;-50
2022/07/24 12:41:01;;;;;;;;;;;27.80;64.20;;;;;;5093444;28;19920;-47
2022/07/24 12:43:28;;;;;;;;;;;27.80;64.30;;;;;;5094070;28;19935;-51
2022/07/24 12:46:06;;;;;;;;;;;28.00;64.30;;;;;;5093159;28;19924;-50
2022/07/24 12:48:32;;;;;;;;;;;28.10;64.50;;;;;;5093208;28;19912;-50
2022/07/24 12:51:10;;;;;;;;;;;28.30;64.80;;;;;;5093523;28;19919;-49
2022/07/24 12:53:37;;;;;;;;;;;28.30;63.60;;;;;;5092268;28;19912;-52
2022/07/24 12:56:07;;;;;;;;;;;28.40;62.70;;;;;;5092808;28;19919;-50
2022/07/24 12:58:52;;;;;;;;;;;28.30;62.40;;;;;;5093145;28;19948;-52
2022/07/24 13:01:18;;;;;;;;;;;28.30;62.90;;;;;;5093663;28;19912;-48
2022/07/24 13:03:49;;;;;;;;;;;28.40;63.50;;;;;;5093580;28;19951;-49
2022/07/24 13:06:15;;;;;;;;;;;28.70;63.60;;;;;;5092326;28;19961;-54
2022/07/24 13:08:40;;;;;;;;;;;29.10;63.50;;;;;;5092878;28;19908;-52
2022/07/24 13:11:06;;;;;;;;;;;29.30;61.90;;;;;;5093684;28;19962;-51
2022/07/24 13:13:32;;;;;;;;;;;28.90;61.10;;;;;;5092812;28;19908;-49
2022/07/24 13:15:57;;;;;;;;;;;28.60;61.20;;;;;;5092843;28;20294;-50
2022/07/24 13:18:23;;;;;;;;;;;28.40;61.50;;;;;;5092420;28;20010;-47
2022/07/24 13:20:48;;;;;;;;;;;28.50;61.70;;;;;;5092795;28;20248;-47
2022/07/24 13:23:14;;;;;;;;;;;28.80;62.40;;;;;;5093278;28;20537;-51
2022/07/24 13:25:42;;;;;;;;;;;29.20;62.20;;;;;;5092544;28;19990;-53
2022/07/24 13:28:08;;;;;;;;;;;29.40;61.80;;;;;;5092916;28;20272;-50
2022/07/24 13:30:33;;;;;;;;;;;29.50;59.60;;;;;;5092815;28;20009;-50
2022/07/24 13:32:59;;;;;;;;;;;29.60;60.10;;;;;;5091998;28;19912;-50
2022/07/24 13:35:25;;;;;;;;;;;29.80;59.70;;;;;;5092503;28;19930;-48
2022/07/24 13:37:50;;;;;;;;;;;30.00;60.30;;;;;;5092330;28;20013;-51
2022/07/24 13:40:16;;;;;;;;;;;30.10;59.40;;;;;;5092467;28;19908;-49
2022/07/24 13:42:42;;;;;;;;;;;29.90;59.20;;;;;;5088653;28;19912;-48
2022/07/24 13:45:08;;;;;;;;;;;29.70;59.80;;;;;;5092030;28;19934;-49
2022/07/24 13:47:34;;;;;;;;;;;29.80;58.40;;;;;;5090744;28;20004;-53
2022/07/24 13:49:59;;;;;;;;;;;29.90;58.10;;;;;;5093231;28;19912;-51
2022/07/24 13:52:25;;;;;;;;;;;29.90;57.50;;;;;;5091631;28;20489;-48
2022/07/24 13:54:50;;;;;;;;;;;30.10;58.10;;;;;;5092898;28;19912;-51
2022/07/24 13:57:16;;;;;;;;;;;30.20;57.30;;;;;;5092313;28;19908;-52
2022/07/24 13:59:42;;;;;;;;;;;30.20;57.30;;;;;;5091781;28;19912;-46
2022/07/24 14:02:07;;;;;;;;;;;30.40;57.10;;;;;;5092825;28;20302;-47
2022/07/24 14:04:33;;;;;;;;;;;30.50;56.10;;;;;;5092868;28;19912;-48
2022/07/24 14:06:59;;;;;;;;;;;30.70;56.40;;;;;;5091952;28;19912;-55
2022/07/24 14:09:25;;;;;;;;;;;30.60;55.90;;;;;;5092479;28;19908;-49
2022/07/24 14:11:51;;;;;;;;;;;30.40;55.50;;;;;;5093139;28;19915;-51
2022/07/24 14:14:16;;;;;;;;;;;30.60;54.80;;;;;;5093420;28;19916;-53
2022/07/24 14:16:42;;;;;;;;;;;30.70;54.70;;;;;;5092151;28;20371;-48